Flight Briefing for CPX813

Departure Arrival
Joint Base McGuire Dix Lakehurst (KWRI)
Click to view FAA NOTAMS
RAF Mildenhall (EGUN)
Click to view FAA NOTAMS
Departure Time Arrival Time
N/A N/A
Aircraft Distance
B767-300BDSF 3069nm
Departure METAR Arrival METAR
KWRI 152056Z 23013G20KT 10SM FEW085 17/04 A2960 RMK AO2A SLP023 T01650042 57017 VISNO RWY06 $ EGUN 152056Z AUTO 17008KT 9999 CLR 08/08 A3020 RMK AO2 SLP230 T00770077 57008 $
Suggested Route





View recent IFR Routes data
Notes
USTRANSCOM CONTRACT FLIGHT

Charts and Procedures

Charts for KWRI
No chart available
Charts for EGUN
No chart available

Ventusky Weather